createdAt,value
2023-01-31T00:01:26.940Z,0.81
2023-01-31T00:03:55.176Z,0.86
2023-01-31T00:06:24.316Z,0.99
2023-01-31T00:08:52.050Z,1.05
2023-01-31T00:11:20.745Z,0.96
2023-01-31T00:13:47.913Z,0.81
2023-01-31T00:16:15.956Z,0.90
2023-01-31T00:18:43.301Z,0.91
2023-01-31T00:21:19.544Z,0.95
2023-01-31T00:23:47.494Z,0.93
2023-01-31T00:26:22.228Z,0.87
2023-01-31T00:28:51.051Z,0.70
2023-01-31T00:31:19.592Z,0.60
2023-01-31T00:33:49.671Z,0.47
2023-01-31T00:36:21.180Z,0.35
2023-01-31T00:38:52.303Z,0.42
2023-01-31T00:41:20.057Z,0.39
2023-01-31T00:43:46.610Z,0.31
2023-01-31T00:46:13.250Z,0.31
2023-01-31T00:48:39.835Z,0.22
2023-01-31T00:51:06.660Z,0.23
2023-01-31T00:53:33.451Z,0.17
2023-01-31T00:56:07.529Z,0.13
2023-01-31T00:58:37.151Z,0.12
2023-01-31T01:01:10.533Z,0.01
2023-01-31T01:03:38.557Z,0.07
2023-01-31T01:06:06.444Z,0.08
2023-01-31T01:08:34.151Z,0.19
2023-01-31T01:11:16.394Z,0.11
2023-01-31T01:13:43.966Z,0.08
2023-01-31T01:16:22.327Z,0.13
2023-01-31T01:18:50.240Z,0.22
2023-01-31T01:21:23.246Z,0.39
2023-01-31T01:23:50.499Z,0.53
2023-01-31T01:26:18.744Z,0.58
2023-01-31T01:28:45.846Z,0.62
2023-01-31T01:31:14.194Z,0.69
2023-01-31T01:33:40.795Z,0.69
2023-01-31T01:36:09.363Z,0.68
2023-01-31T01:38:37.238Z,0.74
2023-01-31T01:41:05.120Z,0.72
2023-01-31T01:43:46.175Z,0.74
2023-01-31T01:46:18.728Z,0.86
2023-01-31T01:48:50.901Z,0.84
2023-01-31T01:51:19.799Z,0.66
2023-01-31T01:53:50.149Z,0.72
2023-01-31T01:56:21.558Z,0.90
2023-01-31T01:59:04.499Z,0.94
2023-01-31T02:01:36.971Z,0.98
2023-01-31T02:04:14.572Z,0.92
2023-01-31T02:06:43.384Z,0.88
2023-01-31T02:09:32.823Z,0.85
2023-01-31T02:11:59.301Z,0.80
2023-01-31T02:14:27.218Z,0.75
2023-01-31T02:16:54.003Z,0.74
2023-01-31T02:19:38.516Z,0.80
2023-01-31T02:22:27.372Z,0.84
2023-01-31T02:25:13.811Z,0.98
2023-01-31T02:28:16.783Z,0.91
2023-01-31T02:30:46.537Z,0.94
2023-01-31T02:33:30.956Z,0.93
2023-01-31T02:36:35.843Z,0.90
2023-01-31T02:39:14.207Z,0.83
2023-01-31T02:41:47.723Z,0.69
2023-01-31T02:44:45.417Z,0.76
2023-01-31T02:47:59.628Z,0.87
2023-01-31T02:50:41.162Z,0.86
2023-01-31T02:53:23.715Z,0.87
2023-01-31T02:56:14.636Z,0.81
2023-01-31T02:59:03.386Z,0.71
2023-01-31T03:01:56.672Z,0.46
2023-01-31T03:04:23.443Z,0.35
2023-01-31T03:06:54.648Z,0.14
2023-01-31T03:09:36.739Z,0.06
2023-01-31T03:12:20.754Z,-0.03
2023-01-31T03:15:08.075Z,0.08
2023-01-31T03:17:55.058Z,0.08
2023-01-31T03:20:32.735Z,-0.03
2023-01-31T03:23:04.889Z,-0.06
2023-01-31T03:25:35.424Z,-0.07
2023-01-31T03:28:09.235Z,-0.04
2023-01-31T03:30:41.932Z,0.01
2023-01-31T03:33:17.109Z,-0.07
2023-01-31T03:35:51.883Z,-0.20
2023-01-31T03:38:22.354Z,-0.23
2023-01-31T03:41:05.970Z,-0.20
2023-01-31T03:43:44.215Z,-0.10
2023-01-31T03:46:25.561Z,-0.15
2023-01-31T03:48:55.822Z,-0.23
2023-01-31T03:51:28.700Z,-0.20
2023-01-31T03:54:01.848Z,-0.12
2023-01-31T03:56:43.212Z,-0.18
2023-01-31T03:59:22.742Z,-0.06
2023-01-31T04:01:53.119Z,-0.11
2023-01-31T04:04:25.927Z,-0.17
2023-01-31T04:06:52.627Z,-0.07
2023-01-31T04:09:22.869Z,-0.11
2023-01-31T04:11:50.622Z,-0.04
2023-01-31T04:14:17.845Z,0.03
2023-01-31T04:16:44.446Z,0.08
2023-01-31T04:19:11.893Z,0.02
2023-01-31T04:21:38.517Z,0.02
2023-01-31T04:24:05.300Z,0.03
2023-01-31T04:26:32.208Z,0.02
2023-01-31T04:28:58.765Z,-0.01
2023-01-31T04:31:25.551Z,-0.07
2023-01-31T04:33:52.036Z,-0.10
2023-01-31T04:36:18.487Z,0.08
2023-01-31T04:38:44.945Z,-0.06
2023-01-31T04:41:11.425Z,-0.01
2023-01-31T04:43:37.933Z,0.02
2023-01-31T04:46:04.628Z,-0.13
2023-01-31T04:48:31.107Z,-0.12
2023-01-31T04:50:58.014Z,-0.24
2023-01-31T04:53:24.535Z,-0.26
2023-01-31T04:55:54.593Z,-0.34
2023-01-31T04:58:21.690Z,-0.42
2023-01-31T05:00:48.284Z,-0.62
2023-01-31T05:03:14.853Z,-0.54
2023-01-31T05:05:41.290Z,-0.40
2023-01-31T05:08:07.923Z,-0.36
2023-01-31T05:10:36.448Z,-0.38
2023-01-31T05:13:03.017Z,-0.42
2023-01-31T05:15:29.546Z,-0.44
2023-01-31T05:18:03.363Z,-0.38
2023-01-31T05:20:38.220Z,-0.50
2023-01-31T05:23:05.063Z,-0.39
2023-01-31T05:25:31.723Z,-0.33
2023-01-31T05:27:58.857Z,-0.28
2023-01-31T05:30:25.430Z,-0.21
2023-01-31T05:32:52.469Z,-0.16
2023-01-31T05:35:19.336Z,-0.14
2023-01-31T05:37:46.235Z,-0.03
2023-01-31T05:40:16.312Z,-0.03
2023-01-31T05:42:43.263Z,0.02
2023-01-31T05:45:11.244Z,-0.03
2023-01-31T05:47:38.038Z,-0.24
2023-01-31T05:50:04.878Z,-0.04
2023-01-31T05:52:31.319Z,0.07
2023-01-31T05:54:57.965Z,-0.03
2023-01-31T05:57:24.450Z,0.06
2023-01-31T05:59:50.982Z,0.06
2023-01-31T06:02:17.459Z,-0.08
2023-01-31T06:04:44.000Z,0.02
2023-01-31T06:07:10.422Z,0.01
2023-01-31T06:09:38.758Z,-0.03
2023-01-31T06:12:05.652Z,0.00
2023-01-31T06:14:32.507Z,0.01
2023-01-31T06:16:59.180Z,-0.08
2023-01-31T06:19:25.952Z,-0.08
2023-01-31T06:21:52.531Z,-0.02
2023-01-31T06:24:18.986Z,-0.08
2023-01-31T06:26:45.497Z,-0.12
2023-01-31T06:29:12.143Z,-0.22
2023-01-31T06:31:38.942Z,-0.30
2023-01-31T06:34:05.511Z,-0.34
2023-01-31T06:36:33.909Z,-0.20
2023-01-31T06:39:00.404Z,-0.24
2023-01-31T06:41:26.848Z,-0.31
2023-01-31T06:43:53.297Z,-0.15
2023-01-31T06:46:19.785Z,-0.34
2023-01-31T06:48:48.275Z,-0.26
2023-01-31T06:51:16.165Z,-0.26
2023-01-31T06:53:42.634Z,-0.13
2023-01-31T06:56:10.053Z,-0.12
2023-01-31T06:58:36.530Z,-0.15
2023-01-31T07:01:14.216Z,-0.27
2023-01-31T07:03:41.003Z,-0.20
2023-01-31T07:06:09.042Z,-0.10
2023-01-31T07:08:36.337Z,-0.14
2023-01-31T07:11:04.397Z,-0.18
2023-01-31T07:13:31.425Z,-0.11
2023-01-31T07:15:58.249Z,-0.20
2023-01-31T07:18:24.856Z,-0.15
2023-01-31T07:20:51.427Z,-0.18
2023-01-31T07:23:17.903Z,-0.16
2023-01-31T07:25:44.477Z,-0.13
2023-01-31T07:28:12.060Z,-0.12
2023-01-31T07:30:40.064Z,-0.16
2023-01-31T07:33:06.792Z,-0.26
2023-01-31T07:35:33.450Z,-0.21
2023-01-31T07:37:59.960Z,-0.23
2023-01-31T07:40:26.505Z,-0.24
2023-01-31T07:42:58.897Z,-0.22
2023-01-31T07:45:26.414Z,-0.15
2023-01-31T07:47:53.223Z,-0.08
2023-01-31T07:50:20.047Z,-0.11
2023-01-31T07:52:49.203Z,-0.20
2023-01-31T07:55:15.826Z,-0.06
2023-01-31T07:57:42.353Z,-0.05
2023-01-31T08:00:29.725Z,-0.07
2023-01-31T08:03:14.940Z,-0.07
2023-01-31T08:05:41.485Z,-0.13
2023-01-31T08:08:10.833Z,-0.13
2023-01-31T08:10:37.602Z,-0.03
2023-01-31T08:13:04.504Z,-0.03
2023-01-31T08:15:30.937Z,0.04
2023-01-31T08:17:57.377Z,0.05
2023-01-31T08:20:23.873Z,0.22
2023-01-31T08:22:50.391Z,0.30
2023-01-31T08:25:19.542Z,0.27
2023-01-31T08:27:46.626Z,0.26
2023-01-31T08:30:13.772Z,0.32
2023-01-31T08:32:40.206Z,0.42
2023-01-31T08:35:07.589Z,0.35
2023-01-31T08:37:34.765Z,0.43
2023-01-31T08:40:01.189Z,0.37
2023-01-31T08:42:27.695Z,0.44
2023-01-31T08:44:54.967Z,0.53
2023-01-31T08:47:21.572Z,0.45
2023-01-31T08:49:48.042Z,0.51
2023-01-31T08:52:14.512Z,0.57
2023-01-31T08:54:41.251Z,0.62
2023-01-31T08:57:07.794Z,0.75
2023-01-31T08:59:34.271Z,0.82
2023-01-31T09:02:00.759Z,0.90
2023-01-31T09:04:27.204Z,0.88
2023-01-31T09:06:54.742Z,0.88
2023-01-31T09:09:21.357Z,0.95
2023-01-31T09:11:47.899Z,0.96
2023-01-31T09:14:14.329Z,1.05
2023-01-31T09:16:43.247Z,1.00
2023-01-31T09:19:10.120Z,1.02
2023-01-31T09:21:36.593Z,0.97
2023-01-31T09:24:03.698Z,1.02
2023-01-31T09:26:31.345Z,1.02
2023-01-31T09:28:58.955Z,1.06
2023-01-31T09:31:25.504Z,1.13
2023-01-31T09:33:52.112Z,0.98
2023-01-31T09:36:20.876Z,1.07
2023-01-31T09:38:47.934Z,1.02
2023-01-31T09:41:30.744Z,1.04
2023-01-31T09:44:23.867Z,1.10
2023-01-31T09:46:57.868Z,1.07
2023-01-31T09:49:31.129Z,1.10
2023-01-31T09:52:03.490Z,1.07
2023-01-31T09:54:36.373Z,1.16
2023-01-31T09:57:13.011Z,1.27
2023-01-31T09:59:49.798Z,1.27
2023-01-31T10:02:34.030Z,1.32
2023-01-31T10:05:15.993Z,1.34
2023-01-31T10:08:07.729Z,1.33
2023-01-31T10:10:39.159Z,1.34
2023-01-31T10:13:16.419Z,1.36
2023-01-31T10:15:46.298Z,1.37
2023-01-31T10:18:21.464Z,1.44
2023-01-31T10:20:52.247Z,1.42
2023-01-31T10:23:29.266Z,1.36
2023-01-31T10:25:59.622Z,1.43
2023-01-31T10:29:06.734Z,1.42
2023-01-31T10:31:43.880Z,1.55
2023-01-31T10:34:31.111Z,1.64
2023-01-31T10:37:16.970Z,1.76
2023-01-31T10:39:54.459Z,1.93
2023-01-31T10:42:34.187Z,1.91
2023-01-31T10:45:18.484Z,1.97
2023-01-31T10:48:01.209Z,2.09
2023-01-31T10:50:34.280Z,2.14
2023-01-31T10:53:06.795Z,2.14
2023-01-31T10:55:39.750Z,2.09
2023-01-31T10:58:13.767Z,2.26
2023-01-31T11:00:40.241Z,2.31
2023-01-31T11:03:07.023Z,2.47
2023-01-31T11:05:39.972Z,2.47
2023-01-31T11:08:29.749Z,2.40
2023-01-31T11:10:58.523Z,2.36
2023-01-31T11:13:25.019Z,2.27
2023-01-31T11:15:55.520Z,2.32
2023-01-31T11:18:30.261Z,2.28
2023-01-31T11:20:56.985Z,2.32
2023-01-31T11:23:26.607Z,2.31
2023-01-31T11:25:55.022Z,2.32
2023-01-31T11:28:34.857Z,2.30
2023-01-31T11:31:01.978Z,2.31
2023-01-31T11:33:40.960Z,2.26
2023-01-31T11:36:10.033Z,2.30
2023-01-31T11:38:36.482Z,2.33
2023-01-31T11:41:40.961Z,2.39
2023-01-31T11:44:20.662Z,2.45
2023-01-31T11:46:55.435Z,2.60
2023-01-31T11:49:44.221Z,2.78
2023-01-31T11:52:18.512Z,2.70
2023-01-31T11:55:08.982Z,2.72
2023-01-31T11:57:38.173Z,2.48
2023-01-31T12:00:20.144Z,2.40
2023-01-31T12:03:02.493Z,2.51
2023-01-31T12:05:37.400Z,2.39
2023-01-31T12:08:04.940Z,2.43
2023-01-31T12:10:45.298Z,2.42
2023-01-31T12:13:18.880Z,2.54
2023-01-31T12:15:51.315Z,2.45
2023-01-31T12:18:28.872Z,2.61
2023-01-31T12:21:16.530Z,2.41
2023-01-31T12:24:18.789Z,2.45
2023-01-31T12:26:54.072Z,2.34
2023-01-31T12:29:35.701Z,2.38
2023-01-31T12:32:07.231Z,2.46
2023-01-31T12:34:41.896Z,2.61
2023-01-31T12:37:32.408Z,2.62
2023-01-31T12:40:30.672Z,2.76
2023-01-31T12:43:01.103Z,2.82
2023-01-31T12:45:37.517Z,2.64
2023-01-31T12:48:25.476Z,2.59
2023-01-31T12:51:30.218Z,2.56
2023-01-31T12:54:07.695Z,2.64
2023-01-31T12:56:47.079Z,2.68
2023-01-31T12:59:22.673Z,2.73
2023-01-31T13:02:01.919Z,2.73
2023-01-31T13:04:31.169Z,2.61
2023-01-31T13:07:02.981Z,2.62
2023-01-31T13:09:35.117Z,2.55
2023-01-31T13:12:09.828Z,2.67
2023-01-31T13:14:42.323Z,2.77
2023-01-31T13:17:13.798Z,2.79
2023-01-31T13:19:44.465Z,2.86
2023-01-31T13:22:22.918Z,2.84
2023-01-31T13:24:56.007Z,2.88
2023-01-31T13:27:39.283Z,2.92
2023-01-31T13:30:11.500Z,2.85
2023-01-31T13:32:42.276Z,2.93
2023-01-31T13:35:18.494Z,2.92
2023-01-31T13:37:49.054Z,2.94
2023-01-31T13:40:24.867Z,2.95
2023-01-31T13:42:53.403Z,2.88
2023-01-31T13:45:24.321Z,2.81
2023-01-31T13:47:55.987Z,2.91
2023-01-31T13:50:35.549Z,2.81
2023-01-31T13:53:04.830Z,2.82
2023-01-31T13:55:42.275Z,2.85
2023-01-31T13:58:23.973Z,2.88
2023-01-31T14:01:19.837Z,2.91
2023-01-31T14:04:11.734Z,2.92
2023-01-31T14:06:56.436Z,2.95
2023-01-31T14:09:24.171Z,2.88
2023-01-31T14:11:50.710Z,2.89
2023-01-31T14:14:37.552Z,2.94
2023-01-31T14:17:12.240Z,2.88
2023-01-31T14:19:45.726Z,2.92
2023-01-31T14:22:33.294Z,2.97
2023-01-31T14:25:03.803Z,2.92
2023-01-31T14:27:34.823Z,2.94
2023-01-31T14:30:07.474Z,2.98
2023-01-31T14:32:58.433Z,2.99
2023-01-31T14:35:31.053Z,2.98
2023-01-31T14:38:09.346Z,3.03
2023-01-31T14:40:35.746Z,3.03
2023-01-31T14:43:13.488Z,3.04
2023-01-31T14:46:08.415Z,2.98
2023-01-31T14:48:43.663Z,2.89
2023-01-31T14:51:13.113Z,2.87
2023-01-31T14:53:54.879Z,2.82
2023-01-31T14:56:50.679Z,2.89
2023-01-31T14:59:40.031Z,2.84
2023-01-31T15:02:31.089Z,2.97
2023-01-31T15:05:01.170Z,2.91
2023-01-31T15:07:28.798Z,2.85
2023-01-31T15:09:55.565Z,2.68
2023-01-31T15:13:00.622Z,2.82
2023-01-31T15:15:37.828Z,2.75
2023-01-31T15:18:16.322Z,2.67
2023-01-31T15:20:45.372Z,2.68
2023-01-31T15:23:20.120Z,2.67
2023-01-31T15:25:48.588Z,2.77
2023-01-31T15:28:18.051Z,2.71
2023-01-31T15:30:46.193Z,2.71
2023-01-31T15:33:18.307Z,2.81
2023-01-31T15:35:51.985Z,2.69
2023-01-31T15:38:31.060Z,2.75
2023-01-31T15:41:18.266Z,2.76
2023-01-31T15:43:46.307Z,2.72
2023-01-31T15:46:13.951Z,2.75
2023-01-31T15:48:43.847Z,2.77
2023-01-31T15:51:16.231Z,2.80
2023-01-31T15:53:43.016Z,2.79
2023-01-31T15:56:23.698Z,2.81
2023-01-31T15:58:52.852Z,2.69
2023-01-31T16:01:19.427Z,2.80
2023-01-31T16:03:58.336Z,2.78
2023-01-31T16:06:32.543Z,2.78
2023-01-31T16:09:01.772Z,2.78
2023-01-31T16:11:33.557Z,2.82
2023-01-31T16:14:03.811Z,2.80
2023-01-31T16:16:33.752Z,2.79
2023-01-31T16:19:01.737Z,2.80
2023-01-31T16:21:45.340Z,2.83
2023-01-31T16:24:11.804Z,2.79
2023-01-31T16:26:40.802Z,2.70
2023-01-31T16:29:15.451Z,2.72
2023-01-31T16:31:48.900Z,2.73
2023-01-31T16:34:24.867Z,2.73
2023-01-31T16:37:01.598Z,2.72
2023-01-31T16:39:30.083Z,2.74
2023-01-31T16:41:58.305Z,2.73
2023-01-31T16:44:35.083Z,2.73
2023-01-31T16:47:03.961Z,2.76
2023-01-31T16:49:37.447Z,2.72
2023-01-31T16:52:29.406Z,2.74
2023-01-31T16:55:01.130Z,2.72
2023-01-31T16:57:37.380Z,2.75
2023-01-31T17:00:08.027Z,2.78
2023-01-31T17:02:40.785Z,2.81
2023-01-31T17:05:22.662Z,2.84
2023-01-31T17:07:49.343Z,2.82
2023-01-31T17:10:22.221Z,2.80
2023-01-31T17:12:51.230Z,2.82
2023-01-31T17:15:20.310Z,2.77
2023-01-31T17:17:48.041Z,2.83
2023-01-31T17:20:16.643Z,2.86
2023-01-31T17:22:45.698Z,2.85
2023-01-31T17:25:22.650Z,2.82
2023-01-31T17:27:49.555Z,2.87
2023-01-31T17:30:19.158Z,2.86
2023-01-31T17:32:46.537Z,2.87
2023-01-31T17:35:25.244Z,2.83
2023-01-31T17:37:51.791Z,2.83
2023-01-31T17:40:18.525Z,2.87
2023-01-31T17:42:45.119Z,2.87
2023-01-31T17:45:17.480Z,2.90
2023-01-31T17:47:46.017Z,2.92
2023-01-31T17:50:30.626Z,2.84
2023-01-31T17:52:57.268Z,2.92
2023-01-31T17:55:25.029Z,2.87
2023-01-31T17:57:52.436Z,2.91
2023-01-31T18:00:20.286Z,2.87
2023-01-31T18:02:46.980Z,2.81
2023-01-31T18:05:18.682Z,2.88
2023-01-31T18:07:49.095Z,2.91
2023-01-31T18:10:15.999Z,2.95
2023-01-31T18:12:42.488Z,2.90
2023-01-31T18:15:09.763Z,2.91
2023-01-31T18:17:36.466Z,2.91
2023-01-31T18:20:03.049Z,2.96
2023-01-31T18:22:29.612Z,2.91
2023-01-31T18:24:56.065Z,2.91
2023-01-31T18:27:22.522Z,2.82
2023-01-31T18:29:49.733Z,2.91
2023-01-31T18:32:17.969Z,2.93
2023-01-31T18:34:45.936Z,2.94
2023-01-31T18:37:19.431Z,2.93
2023-01-31T18:39:50.201Z,2.97
2023-01-31T18:42:16.969Z,2.98
2023-01-31T18:44:44.943Z,3.00
2023-01-31T18:47:12.339Z,2.97
2023-01-31T18:49:38.808Z,2.97
2023-01-31T18:52:08.698Z,2.96
2023-01-31T18:54:35.447Z,3.07
2023-01-31T18:57:01.919Z,3.04
2023-01-31T18:59:28.450Z,3.02
2023-01-31T19:01:55.129Z,3.01
2023-01-31T19:04:21.800Z,3.05
2023-01-31T19:06:51.288Z,3.02
2023-01-31T19:09:18.146Z,3.00
2023-01-31T19:11:45.194Z,2.96
2023-01-31T19:14:13.903Z,2.96
2023-01-31T19:16:42.289Z,3.02
2023-01-31T19:19:09.653Z,2.98
2023-01-31T19:21:37.651Z,3.02
2023-01-31T19:24:06.793Z,3.09
2023-01-31T19:26:34.439Z,2.98
2023-01-31T19:29:02.244Z,3.06
2023-01-31T19:31:31.289Z,3.04
2023-01-31T19:34:03.954Z,3.09
2023-01-31T19:36:36.386Z,3.04
2023-01-31T19:39:04.973Z,3.09
2023-01-31T19:41:33.165Z,3.09
2023-01-31T19:44:00.784Z,3.00
2023-01-31T19:46:31.188Z,2.88
2023-01-31T19:48:59.102Z,2.96
2023-01-31T19:51:26.783Z,3.05
2023-01-31T19:54:01.539Z,3.04
2023-01-31T19:56:29.393Z,3.03
2023-01-31T19:58:56.405Z,3.12
2023-01-31T20:01:23.431Z,3.10
2023-01-31T20:03:50.206Z,3.10
2023-01-31T20:06:19.200Z,3.11
2023-01-31T20:08:50.425Z,3.12
2023-01-31T20:11:16.958Z,3.11
2023-01-31T20:13:43.486Z,3.12
2023-01-31T20:16:12.032Z,3.13
2023-01-31T20:18:40.141Z,3.15
2023-01-31T20:21:07.290Z,3.17
2023-01-31T20:23:33.845Z,3.16
2023-01-31T20:26:00.519Z,3.17
2023-01-31T20:28:27.769Z,3.19
2023-01-31T20:30:54.356Z,3.15
2023-01-31T20:33:21.370Z,3.23
2023-01-31T20:35:48.007Z,3.21
2023-01-31T20:38:17.114Z,3.23
2023-01-31T20:40:50.179Z,3.23
2023-01-31T20:43:17.706Z,3.28
2023-01-31T20:45:44.326Z,3.30
2023-01-31T20:48:10.805Z,3.30
2023-01-31T20:50:37.485Z,3.30
2023-01-31T20:53:04.115Z,3.33
2023-01-31T20:55:30.967Z,3.32
2023-01-31T20:57:58.430Z,3.31
2023-01-31T21:00:25.613Z,3.31
2023-01-31T21:02:52.180Z,3.31
2023-01-31T21:05:19.866Z,3.33
2023-01-31T21:07:46.313Z,3.38
2023-01-31T21:10:12.975Z,3.40
2023-01-31T21:12:39.491Z,3.37
2023-01-31T21:15:06.697Z,3.37
2023-01-31T21:17:40.056Z,3.44
2023-01-31T21:20:08.537Z,3.44
2023-01-31T21:22:35.140Z,3.36
2023-01-31T21:25:01.896Z,3.44
2023-01-31T21:27:28.455Z,3.44
2023-01-31T21:29:54.994Z,3.43
2023-01-31T21:32:21.659Z,3.44
2023-01-31T21:34:48.114Z,3.52
2023-01-31T21:37:14.700Z,3.54
2023-01-31T21:39:41.202Z,3.57
2023-01-31T21:42:15.535Z,3.54
2023-01-31T21:44:47.383Z,3.56
2023-01-31T21:47:15.435Z,3.50
2023-01-31T21:49:41.989Z,3.48
2023-01-31T21:52:09.758Z,3.40
2023-01-31T21:54:36.527Z,3.42
2023-01-31T21:57:02.976Z,3.36
2023-01-31T21:59:29.472Z,3.40
2023-01-31T22:01:56.034Z,3.43
2023-01-31T22:04:23.419Z,3.48
2023-01-31T22:06:50.769Z,3.46
2023-01-31T22:09:17.975Z,3.54
2023-01-31T22:11:47.356Z,3.50
2023-01-31T22:14:15.729Z,3.52
2023-01-31T22:16:42.826Z,3.52
2023-01-31T22:19:13.876Z,3.50
2023-01-31T22:21:41.906Z,3.55
2023-01-31T22:24:11.352Z,3.51
2023-01-31T22:26:41.180Z,3.59
2023-01-31T22:29:10.838Z,3.60
2023-01-31T22:31:37.565Z,3.58
2023-01-31T22:34:05.378Z,3.60
2023-01-31T22:36:33.096Z,3.63
2023-01-31T22:39:00.091Z,3.59
2023-01-31T22:41:26.833Z,3.56
2023-01-31T22:43:54.426Z,3.58
2023-01-31T22:46:24.551Z,3.64
2023-01-31T22:48:51.758Z,3.62
2023-01-31T22:51:21.110Z,3.56
2023-01-31T22:53:48.437Z,3.58
2023-01-31T22:56:20.498Z,3.61
2023-01-31T22:58:47.900Z,3.70
2023-01-31T23:01:18.016Z,3.69
2023-01-31T23:03:45.796Z,3.66
2023-01-31T23:06:13.307Z,3.75
2023-01-31T23:08:40.266Z,3.80
2023-01-31T23:11:13.187Z,3.68
2023-01-31T23:13:39.910Z,3.67
2023-01-31T23:16:07.262Z,3.72
2023-01-31T23:18:34.396Z,3.76
2023-01-31T23:21:16.352Z,3.80
2023-01-31T23:23:43.463Z,3.84
2023-01-31T23:26:11.148Z,3.85
2023-01-31T23:28:38.187Z,3.86
2023-01-31T23:31:05.005Z,3.83
2023-01-31T23:33:31.532Z,3.76
2023-01-31T23:35:57.988Z,3.87
2023-01-31T23:38:24.781Z,3.87
2023-01-31T23:40:52.369Z,3.84
2023-01-31T23:43:19.594Z,3.82
2023-01-31T23:45:46.474Z,3.77
2023-01-31T23:48:12.953Z,3.82
2023-01-31T23:50:39.442Z,3.81
2023-01-31T23:53:05.908Z,3.77
2023-01-31T23:55:32.419Z,3.84
2023-01-31T23:57:58.876Z,3.90
